Time,TemperatureF,DewpointF,PressureIn,WindDirection,WindDirectionDegrees,WindSpeedMPH,WindSpeedGustMPH,Humidity,HourlyPrecipIn,Conditions,Clouds,dailyrainin,SoftwareType,DateUTC
2013-10-06 00:10:00,68.6,27.0,30.09,West,261,2.0,7.0,21,0.00,,,0.00,weatherlink.com 1.10,2013-10-06 07:10:00,
2013-10-06 00:25:00,69.7,24.0,30.09,WNW,292,4.0,10.0,18,0.00,,,0.00,weatherlink.com 1.10,2013-10-06 07:25:00,
2013-10-06 00:40:00,70.3,23.0,30.09,WNW,283,5.0,14.0,17,0.00,,,0.00,weatherlink.com 1.10,2013-10-06 07:40:00,
2013-10-06 00:55:00,69.3,23.0,30.10,SSW,212,2.0,4.0,17,0.00,,,0.00,weatherlink.com 1.10,2013-10-06 07:55:00,
2013-10-06 01:10:00,67.6,26.0,30.10,West,259,1.0,6.0,21,0.00,,,0.00,weatherlink.com 1.10,2013-10-06 08:10:00,
2013-10-06 01:26:00,66.8,23.0,30.10,NNE,29,0.0,5.0,19,0.00,,,0.00,weatherlink.com 1.10,2013-10-06 08:26:00,
2013-10-06 01:41:00,65.5,26.0,30.10,ENE,71,3.0,4.0,22,0.00,,,0.00,weatherlink.com 1.10,2013-10-06 08:41:00,
2013-10-06 01:56:00,65.3,25.0,30.10,ENE,70,0.0,3.0,22,0.00,,,0.00,weatherlink.com 1.10,2013-10-06 08:56:00,
2013-10-06 02:11:00,65.1,25.0,30.10,NE,34,1.0,4.0,22,0.00,,,0.00,weatherlink.com 1.10,2013-10-06 09:11:00,
2013-10-06 02:26:00,65.8,25.0,30.09,North,8,0.0,4.0,21,0.00,,,0.00,weatherlink.com 1.10,2013-10-06 09:26:00,
2013-10-06 02:41:00,63.7,25.0,30.09,NW,312,0.0,1.0,23,0.00,,,0.00,weatherlink.com 1.10,2013-10-06 09:41:00,
2013-10-06 02:56:00,62.1,27.0,30.10,NE,38,2.0,3.0,26,0.00,,,0.00,weatherlink.com 1.10,2013-10-06 09:56:00,
2013-10-06 03:11:00,63.0,27.0,30.09,NNE,30,1.0,5.0,26,0.00,,,0.00,weatherlink.com 1.10,2013-10-06 10:11:00,
2013-10-06 03:26:00,63.2,27.0,30.09,NE,51,0.0,2.0,25,0.00,,,0.00,weatherlink.com 1.10,2013-10-06 10:26:00,
2013-10-06 03:41:00,62.2,24.0,30.09,NE,40,4.0,6.0,23,0.00,,,0.00,weatherlink.com 1.10,2013-10-06 10:41:00,
2013-10-06 03:56:00,61.2,24.0,30.09,ESE,103,1.0,1.0,24,0.00,,,0.00,weatherlink.com 1.10,2013-10-06 10:56:00,
2013-10-06 04:11:00,60.1,24.0,30.09,NE,49,0.0,2.0,25,0.00,,,0.00,weatherlink.com 1.10,2013-10-06 11:11:00,
2013-10-06 04:26:00,61.3,25.0,30.09,ENE,64,0.0,2.0,25,0.00,,,0.00,weatherlink.com 1.10,2013-10-06 11:26:00,
2013-10-06 04:41:00,61.3,24.0,30.09,NNE,19,3.0,4.0,24,0.00,,,0.00,weatherlink.com 1.10,2013-10-06 11:41:00,
2013-10-06 04:56:00,60.1,24.0,30.09,NE,43,3.0,4.0,25,0.00,,,0.00,weatherlink.com 1.10,2013-10-06 11:56:00,
2013-10-06 05:11:00,60.1,24.0,30.09,NE,48,2.0,4.0,25,0.00,,,0.00,weatherlink.com 1.10,2013-10-06 12:11:00,
2013-10-06 05:26:00,59.8,23.0,30.09,NE,44,3.0,6.0,24,0.00,,,0.00,weatherlink.com 1.10,2013-10-06 12:26:00,
2013-10-06 05:41:00,60.3,23.0,30.09,NNE,21,3.0,4.0,24,0.00,,,0.00,weatherlink.com 1.10,2013-10-06 12:41:00,
2013-10-06 05:56:00,60.0,23.0,30.09,NNE,25,2.0,5.0,24,0.00,,,0.00,weatherlink.com 1.10,2013-10-06 12:56:00,
2013-10-06 06:11:00,59.6,23.0,30.10,NNE,26,3.0,4.0,24,0.00,,,0.00,weatherlink.com 1.10,2013-10-06 13:11:00,
2013-10-06 06:26:00,58.7,23.0,30.10,NNE,29,4.0,5.0,25,0.00,,,0.00,weatherlink.com 1.10,2013-10-06 13:26:00,
2013-10-06 06:41:00,58.8,23.0,30.11,North,11,1.0,4.0,25,0.00,,,0.00,weatherlink.com 1.10,2013-10-06 13:41:00,
2013-10-06 06:56:00,58.7,24.0,30.11,NE,34,4.0,4.0,26,0.00,,,0.00,weatherlink.com 1.10,2013-10-06 13:56:00,
2013-10-06 07:11:00,59.3,24.0,30.11,NE,43,2.0,5.0,26,0.00,,,0.00,weatherlink.com 1.10,2013-10-06 14:11:00,
2013-10-06 07:26:00,61.0,26.0,30.11,NE,41,2.0,3.0,26,0.00,,,0.00,weatherlink.com 1.10,2013-10-06 14:26:00,
2013-10-06 07:41:00,63.8,27.0,30.12,ENE,66,0.0,2.0,25,0.00,,,0.00,weatherlink.com 1.10,2013-10-06 14:41:00,
2013-10-06 07:56:00,65.4,27.0,30.12,East,86,1.0,3.0,23,0.00,,,0.00,weatherlink.com 1.10,2013-10-06 14:56:00,
2013-10-06 08:11:00,67.1,26.0,30.12,NW,326,1.0,3.0,21,0.00,,,0.00,weatherlink.com 1.10,2013-10-06 15:11:00,
2013-10-06 08:26:00,68.9,26.0,30.13,WNW,291,2.0,2.0,20,0.00,,,0.00,weatherlink.com 1.10,2013-10-06 15:26:00,
2013-10-06 08:41:00,70.2,26.0,30.13,NW,311,3.0,6.0,19,0.00,,,0.00,weatherlink.com 1.10,2013-10-06 15:41:00,
2013-10-06 08:56:00,71.1,25.0,30.13,WNW,285,4.0,8.0,18,0.00,,,0.00,weatherlink.com 1.10,2013-10-06 15:56:00,
2013-10-06 09:11:00,72.3,25.0,30.13,WNW,302,3.0,6.0,17,0.00,,,0.00,weatherlink.com 1.10,2013-10-06 16:11:00,
2013-10-06 09:26:00,72.4,25.0,30.13,West,262,5.0,8.0,17,0.00,,,0.00,weatherlink.com 1.10,2013-10-06 16:26:00,
2013-10-06 09:41:00,73.2,26.0,30.13,WNW,302,7.0,9.0,17,0.00,,,0.00,weatherlink.com 1.10,2013-10-06 16:41:00,
2013-10-06 09:56:00,73.8,26.0,30.13,West,278,4.0,8.0,17,0.00,,,0.00,weatherlink.com 1.10,2013-10-06 16:56:00,
2013-10-06 10:11:00,74.4,25.0,30.13,NW,313,2.0,7.0,16,0.00,,,0.00,weatherlink.com 1.10,2013-10-06 17:11:00,
2013-10-06 10:26:00,75.4,26.0,30.13,West,278,7.0,10.0,16,0.00,,,0.00,weatherlink.com 1.10,2013-10-06 17:26:00,
2013-10-06 10:42:00,76.4,25.0,30.12,West,276,5.0,13.0,15,0.00,,,0.00,weatherlink.com 1.10,2013-10-06 17:42:00,
2013-10-06 10:57:00,77.7,25.0,30.12,WSW,247,6.0,11.0,14,0.00,,,0.00,weatherlink.com 1.10,2013-10-06 17:57:00,
2013-10-06 11:12:00,78.5,24.0,30.11,West,277,3.0,13.0,13,0.00,,,0.00,weatherlink.com 1.10,2013-10-06 18:12:00,
2013-10-06 11:27:00,79.1,24.0,30.11,WNW,302,10.0,12.0,13,0.00,,,0.00,weatherlink.com 1.10,2013-10-06 18:27:00,
2013-10-06 11:42:00,79.9,25.0,30.10,WSW,252,6.0,12.0,13,0.00,,,0.00,weatherlink.com 1.10,2013-10-06 18:42:00,
2013-10-06 11:57:00,81.6,24.0,30.09,NW,314,4.0,9.0,12,0.00,,,0.00,weatherlink.com 1.10,2013-10-06 18:57:00,
2013-10-06 12:12:00,81.6,22.0,30.08,NW,314,6.0,11.0,11,0.00,,,0.00,weatherlink.com 1.10,2013-10-06 19:12:00,
2013-10-06 12:27:00,82.5,23.0,30.07,WNW,283,4.0,11.0,11,0.00,,,0.00,weatherlink.com 1.10,2013-10-06 19:27:00,
2013-10-06 12:42:00,83.5,24.0,30.06,West,267,11.0,11.0,11,0.00,,,0.00,weatherlink.com 1.10,2013-10-06 19:42:00,
2013-10-06 12:57:00,84.0,24.0,30.05,West,268,8.0,12.0,11,0.00,,,0.00,weatherlink.com 1.10,2013-10-06 19:57:00,
2013-10-06 13:12:00,84.4,22.0,30.04,SW,234,4.0,13.0,10,0.00,,,0.00,weatherlink.com 1.10,2013-10-06 20:12:00,
2013-10-06 13:27:00,85.2,23.0,30.03,West,280,6.0,11.0,10,0.00,,,0.00,weatherlink.com 1.10,2013-10-06 20:27:00,
2013-10-06 13:42:00,85.3,20.0,30.02,West,263,8.0,13.0,9,0.00,,,0.00,weatherlink.com 1.10,2013-10-06 20:42:00,
2013-10-06 13:57:00,86.1,21.0,30.02,West,269,7.0,12.0,9,0.00,,,0.00,weatherlink.com 1.10,2013-10-06 20:57:00,
2013-10-06 14:12:00,86.1,15.0,30.01,SW,231,8.0,11.0,7,0.00,,,0.00,weatherlink.com 1.10,2013-10-06 21:12:00,
2013-10-06 14:27:00,86.2,15.0,30.01,West,280,6.0,11.0,7,0.00,,,0.00,weatherlink.com 1.10,2013-10-06 21:27:00,
2013-10-06 14:42:00,86.5,12.0,30.00,WNW,288,5.0,10.0,6,0.00,,,0.00,weatherlink.com 1.10,2013-10-06 21:42:00,
2013-10-06 14:57:00,86.7,15.0,30.00,WNW,294,7.0,10.0,7,0.00,,,0.00,weatherlink.com 1.10,2013-10-06 21:57:00,
2013-10-06 15:12:00,86.9,12.0,29.99,WNW,287,4.0,10.0,6,0.00,,,0.00,weatherlink.com 1.10,2013-10-06 22:12:00,
2013-10-06 15:27:00,87.4,12.0,29.98,West,265,5.0,9.0,6,0.00,,,0.00,weatherlink.com 1.10,2013-10-06 22:27:00,
2013-10-06 15:42:00,87.7,16.0,29.98,WSW,250,4.0,9.0,7,0.00,,,0.00,weatherlink.com 1.10,2013-10-06 22:42:00,
2013-10-06 15:57:00,87.7,16.0,29.97,WNW,285,5.0,8.0,7,0.00,,,0.00,weatherlink.com 1.10,2013-10-06 22:57:00,
2013-10-06 16:12:00,88.3,17.0,29.97,WSW,241,2.0,7.0,7,0.00,,,0.00,weatherlink.com 1.10,2013-10-06 23:12:00,
2013-10-06 16:28:00,87.8,16.0,29.97,WSW,256,6.0,9.0,7,0.00,,,0.00,weatherlink.com 1.10,2013-10-06 23:28:00,
2013-10-06 16:43:00,87.7,16.0,29.96,SW,223,4.0,9.0,7,0.00,,,0.00,weatherlink.com 1.10,2013-10-06 23:43:00,
2013-10-06 16:58:00,87.9,16.0,29.96,WSW,258,6.0,6.0,7,0.00,,,0.00,weatherlink.com 1.10,2013-10-06 23:58:00,
2013-10-06 17:13:00,87.5,16.0,29.96,West,267,2.0,7.0,7,0.00,,,0.00,weatherlink.com 1.10,2013-10-07 00:13:00,
2013-10-06 17:28:00,87.1,16.0,29.95,West,276,4.0,7.0,7,0.00,,,0.00,weatherlink.com 1.10,2013-10-07 00:28:00,
2013-10-06 17:43:00,86.9,16.0,29.95,WNW,300,1.0,7.0,7,0.00,,,0.00,weatherlink.com 1.10,2013-10-07 00:43:00,
2013-10-06 17:58:00,86.4,15.0,29.95,West,262,1.0,4.0,7,0.00,,,0.00,weatherlink.com 1.10,2013-10-07 00:58:00,
2013-10-06 18:13:00,84.7,17.0,29.96,WNW,290,2.0,3.0,8,0.00,,,0.00,weatherlink.com 1.10,2013-10-07 01:13:00,
2013-10-06 18:28:00,83.4,19.0,29.96,WNW,291,1.0,3.0,9,0.00,,,0.00,weatherlink.com 1.10,2013-10-07 01:28:00,
2013-10-06 18:43:00,82.0,20.0,29.96,NNW,332,1.0,1.0,10,0.00,,,0.00,weatherlink.com 1.10,2013-10-07 01:43:00,
2013-10-06 18:58:00,81.1,22.0,29.96,North,359,3.0,3.0,11,0.00,,,0.00,weatherlink.com 1.10,2013-10-07 01:58:00,
2013-10-06 19:13:00,79.7,21.0,29.96,NNE,20,4.0,4.0,11,0.00,,,0.00,weatherlink.com 1.10,2013-10-07 02:13:00,
2013-10-06 19:28:00,78.7,22.0,29.96,NNE,27,3.0,5.0,12,0.00,,,0.00,weatherlink.com 1.10,2013-10-07 02:28:00,
2013-10-06 19:43:00,78.6,22.0,29.96,North,1,4.0,6.0,12,0.00,,,0.00,weatherlink.com 1.10,2013-10-07 02:43:00,
2013-10-06 19:58:00,78.6,22.0,29.96,North,4,2.0,4.0,12,0.00,,,0.00,weatherlink.com 1.10,2013-10-07 02:58:00,
2013-10-06 20:13:00,78.6,22.0,29.96,NNE,13,5.0,5.0,12,0.00,,,0.00,weatherlink.com 1.10,2013-10-07 03:13:00,
2013-10-06 20:28:00,78.2,19.0,29.96,North,9,3.0,5.0,11,0.00,,,0.00,weatherlink.com 1.10,2013-10-07 03:28:00,
2013-10-06 20:43:00,77.8,19.0,29.96,NNE,15,2.0,5.0,11,0.00,,,0.00,weatherlink.com 1.10,2013-10-07 03:43:00,
2013-10-06 20:58:00,77.3,21.0,29.96,NNW,347,0.0,4.0,12,0.00,,,0.00,weatherlink.com 1.10,2013-10-07 03:58:00,
2013-10-06 21:13:00,75.8,20.0,29.96,NNE,24,2.0,2.0,12,0.00,,,0.00,weatherlink.com 1.10,2013-10-07 04:13:00,
2013-10-06 21:28:00,74.8,22.0,29.96,NNE,24,0.0,1.0,14,0.00,,,0.00,weatherlink.com 1.10,2013-10-07 04:28:00,
2013-10-06 21:43:00,75.5,21.0,29.96,NW,305,0.0,2.0,13,0.00,,,0.00,weatherlink.com 1.10,2013-10-07 04:43:00,
2013-10-06 21:58:00,73.7,28.0,29.96,WNW,288,2.0,3.0,18,0.00,,,0.00,weatherlink.com 1.10,2013-10-07 04:58:00,
2013-10-06 22:13:00,72.4,25.0,29.96,NW,307,2.0,5.0,17,0.00,,,0.00,weatherlink.com 1.10,2013-10-07 05:13:00,
2013-10-06 22:28:00,71.8,26.0,29.96,WNW,296,2.0,3.0,18,0.00,,,0.00,weatherlink.com 1.10,2013-10-07 05:28:00,
2013-10-06 22:43:00,70.6,25.0,29.97,NW,324,3.0,4.0,18,0.00,,,0.00,weatherlink.com 1.10,2013-10-07 05:43:00,
2013-10-06 22:58:00,70.3,22.0,29.96,NNW,327,0.0,3.0,16,0.00,,,0.00,weatherlink.com 1.10,2013-10-07 05:58:00,
2013-10-06 23:13:00,69.8,23.0,29.96,North,4,3.0,5.0,17,0.00,,,0.00,weatherlink.com 1.10,2013-10-07 06:13:00,
2013-10-06 23:28:00,69.6,23.0,29.96,NNE,15,3.0,4.0,17,0.00,,,0.00,weatherlink.com 1.10,2013-10-07 06:28:00,
2013-10-06 23:43:00,69.4,23.0,29.96,North,354,3.0,4.0,17,0.00,,,0.00,weatherlink.com 1.10,2013-10-07 06:43:00,
2013-10-06 23:58:00,68.6,22.0,29.95,NNE,25,3.0,4.0,17,0.00,,,0.00,weatherlink.com 1.10,2013-10-07 06:58:00,